sensor_id;sensor_type;location;lat;lon;timestamp;P1;durP1;ratioP1;P2;durP2;ratioP2
36817;SDS011;22761;51.542;16.450;2024-02-04T00:00:42;2.60;;;0.40;;
36817;SDS011;22761;51.542;16.450;2024-02-04T00:03:30;0.90;;;0.40;;
36817;SDS011;22761;51.542;16.450;2024-02-04T00:05:59;2.00;;;0.50;;
36817;SDS011;22761;51.542;16.450;2024-02-04T00:08:27;2.60;;;0.60;;
36817;SDS011;22761;51.542;16.450;2024-02-04T00:10:55;1.70;;;0.60;;
36817;SDS011;22761;51.542;16.450;2024-02-04T00:13:23;2.10;;;0.50;;
36817;SDS011;22761;51.542;16.450;2024-02-04T00:15:51;3.20;;;0.60;;
36817;SDS011;22761;51.542;16.450;2024-02-04T00:18:22;2.10;;;0.70;;
36817;SDS011;22761;51.542;16.450;2024-02-04T00:20:50;2.80;;;0.60;;
36817;SDS011;22761;51.542;16.450;2024-02-04T00:23:18;2.10;;;0.40;;
36817;SDS011;22761;51.542;16.450;2024-02-04T00:25:46;3.20;;;0.60;;
36817;SDS011;22761;51.542;16.450;2024-02-04T00:28:14;1.40;;;0.60;;
36817;SDS011;22761;51.542;16.450;2024-02-04T00:30:43;2.00;;;0.80;;
36817;SDS011;22761;51.542;16.450;2024-02-04T00:33:11;2.80;;;0.80;;
36817;SDS011;22761;51.542;16.450;2024-02-04T00:35:39;3.20;;;0.80;;
36817;SDS011;22761;51.542;16.450;2024-02-04T00:38:08;1.90;;;0.70;;
36817;SDS011;22761;51.542;16.450;2024-02-04T00:40:39;3.70;;;0.80;;
36817;SDS011;22761;51.542;16.450;2024-02-04T00:43:07;1.30;;;0.60;;
36817;SDS011;22761;51.542;16.450;2024-02-04T00:45:36;4.60;;;1.10;;
36817;SDS011;22761;51.542;16.450;2024-02-04T00:48:04;3.10;;;1.10;;
36817;SDS011;22761;51.542;16.450;2024-02-04T00:50:33;8.90;;;1.30;;
36817;SDS011;22761;51.542;16.450;2024-02-04T00:53:01;2.00;;;0.80;;
36817;SDS011;22761;51.542;16.450;2024-02-04T00:55:29;6.10;;;1.10;;
36817;SDS011;22761;51.542;16.450;2024-02-04T00:57:58;2.50;;;0.90;;
36817;SDS011;22761;51.542;16.450;2024-02-04T01:00:28;5.60;;;1.40;;
36817;SDS011;22761;51.542;16.450;2024-02-04T01:02:57;4.30;;;0.70;;
36817;SDS011;22761;51.542;16.450;2024-02-04T01:05:25;5.40;;;0.60;;
36817;SDS011;22761;51.542;16.450;2024-02-04T01:07:53;3.20;;;0.70;;
36817;SDS011;22761;51.542;16.450;2024-02-04T01:10:22;3.50;;;1.10;;
36817;SDS011;22761;51.542;16.450;2024-02-04T01:12:50;3.30;;;0.80;;
36817;SDS011;22761;51.542;16.450;2024-02-04T01:15:18;3.50;;;1.10;;
36817;SDS011;22761;51.542;16.450;2024-02-04T01:17:46;4.40;;;1.10;;
36817;SDS011;22761;51.542;16.450;2024-02-04T01:20:15;4.80;;;1.10;;
36817;SDS011;22761;51.542;16.450;2024-02-04T01:22:43;3.20;;;0.90;;
36817;SDS011;22761;51.542;16.450;2024-02-04T01:25:11;3.40;;;0.80;;
36817;SDS011;22761;51.542;16.450;2024-02-04T01:27:39;5.00;;;1.70;;
36817;SDS011;22761;51.542;16.450;2024-02-04T01:30:08;5.60;;;1.30;;
36817;SDS011;22761;51.542;16.450;2024-02-04T01:32:36;5.60;;;1.30;;
36817;SDS011;22761;51.542;16.450;2024-02-04T01:35:05;3.60;;;1.50;;
36817;SDS011;22761;51.542;16.450;2024-02-04T01:37:34;3.70;;;1.30;;
36817;SDS011;22761;51.542;16.450;2024-02-04T01:40:02;4.60;;;1.80;;
36817;SDS011;22761;51.542;16.450;2024-02-04T01:42:31;4.20;;;1.60;;
36817;SDS011;22761;51.542;16.450;2024-02-04T01:44:59;5.20;;;1.80;;
36817;SDS011;22761;51.542;16.450;2024-02-04T01:47:28;5.90;;;2.00;;
36817;SDS011;22761;51.542;16.450;2024-02-04T01:49:56;4.80;;;2.00;;
36817;SDS011;22761;51.542;16.450;2024-02-04T01:52:24;5.80;;;2.10;;
36817;SDS011;22761;51.542;16.450;2024-02-04T01:54:52;4.80;;;1.80;;
36817;SDS011;22761;51.542;16.450;2024-02-04T01:57:21;5.60;;;2.30;;
36817;SDS011;22761;51.542;16.450;2024-02-04T01:59:49;4.30;;;1.90;;
36817;SDS011;22761;51.542;16.450;2024-02-04T02:02:20;5.50;;;2.10;;
36817;SDS011;22761;51.542;16.450;2024-02-04T02:04:48;3.20;;;1.70;;
36817;SDS011;22761;51.542;16.450;2024-02-04T02:07:17;4.20;;;1.80;;
36817;SDS011;22761;51.542;16.450;2024-02-04T02:09:48;4.10;;;1.90;;
36817;SDS011;22761;51.542;16.450;2024-02-04T02:12:18;3.20;;;2.20;;
36817;SDS011;22761;51.542;16.450;2024-02-04T02:17:57;6.40;;;1.80;;
36817;SDS011;22761;51.542;16.450;2024-02-04T02:20:32;3.40;;;1.80;;
36817;SDS011;22761;51.542;16.450;2024-02-04T02:23:14;6.20;;;2.10;;
36817;SDS011;22761;51.542;16.450;2024-02-04T02:25:46;4.20;;;1.90;;
36817;SDS011;22761;51.542;16.450;2024-02-04T02:28:14;7.40;;;2.20;;
36817;SDS011;22761;51.542;16.450;2024-02-04T02:30:42;2.70;;;1.70;;
36817;SDS011;22761;51.542;16.450;2024-02-04T02:33:10;3.50;;;1.50;;
36817;SDS011;22761;51.542;16.450;2024-02-04T02:35:39;7.30;;;1.50;;
36817;SDS011;22761;51.542;16.450;2024-02-04T02:38:26;6.50;;;1.60;;
36817;SDS011;22761;51.542;16.450;2024-02-04T02:41:03;4.80;;;1.40;;
36817;SDS011;22761;51.542;16.450;2024-02-04T02:43:32;4.30;;;1.50;;
36817;SDS011;22761;51.542;16.450;2024-02-04T02:46:02;3.60;;;1.30;;
36817;SDS011;22761;51.542;16.450;2024-02-04T02:48:31;3.70;;;1.50;;
36817;SDS011;22761;51.542;16.450;2024-02-04T02:50:59;3.50;;;1.30;;
36817;SDS011;22761;51.542;16.450;2024-02-04T02:53:27;3.10;;;1.10;;
36817;SDS011;22761;51.542;16.450;2024-02-04T02:55:56;2.90;;;1.30;;
36817;SDS011;22761;51.542;16.450;2024-02-04T02:58:24;5.20;;;1.20;;
36817;SDS011;22761;51.542;16.450;2024-02-04T03:00:52;4.20;;;1.60;;
36817;SDS011;22761;51.542;16.450;2024-02-04T03:03:21;6.40;;;2.00;;
36817;SDS011;22761;51.542;16.450;2024-02-04T03:05:50;3.20;;;1.40;;
36817;SDS011;22761;51.542;16.450;2024-02-04T03:08:18;3.60;;;1.40;;
36817;SDS011;22761;51.542;16.450;2024-02-04T03:10:46;5.30;;;1.50;;
36817;SDS011;22761;51.542;16.450;2024-02-04T03:13:14;3.10;;;1.10;;
36817;SDS011;22761;51.542;16.450;2024-02-04T03:15:42;4.60;;;1.50;;
36817;SDS011;22761;51.542;16.450;2024-02-04T03:18:11;3.30;;;1.20;;
36817;SDS011;22761;51.542;16.450;2024-02-04T03:20:39;4.70;;;1.30;;
36817;SDS011;22761;51.542;16.450;2024-02-04T03:23:08;3.60;;;1.30;;
36817;SDS011;22761;51.542;16.450;2024-02-04T03:25:37;5.20;;;1.10;;
36817;SDS011;22761;51.542;16.450;2024-02-04T03:28:05;4.80;;;1.20;;
36817;SDS011;22761;51.542;16.450;2024-02-04T03:30:33;4.20;;;1.00;;
36817;SDS011;22761;51.542;16.450;2024-02-04T03:33:01;3.60;;;0.90;;
36817;SDS011;22761;51.542;16.450;2024-02-04T03:35:30;3.20;;;1.20;;
36817;SDS011;22761;51.542;16.450;2024-02-04T03:37:58;3.40;;;1.00;;
36817;SDS011;22761;51.542;16.450;2024-02-04T03:40:27;5.30;;;1.00;;
36817;SDS011;22761;51.542;16.450;2024-02-04T03:42:55;3.70;;;1.00;;
36817;SDS011;22761;51.542;16.450;2024-02-04T03:45:24;8.40;;;0.90;;
36817;SDS011;22761;51.542;16.450;2024-02-04T03:47:52;5.50;;;1.10;;
36817;SDS011;22761;51.542;16.450;2024-02-04T03:50:20;4.30;;;0.90;;
36817;SDS011;22761;51.542;16.450;2024-02-04T03:52:49;4.90;;;0.90;;
36817;SDS011;22761;51.542;16.450;2024-02-04T03:55:17;1.30;;;0.60;;
36817;SDS011;22761;51.542;16.450;2024-02-04T03:57:45;4.70;;;1.20;;
36817;SDS011;22761;51.542;16.450;2024-02-04T04:00:13;5.70;;;1.00;;
36817;SDS011;22761;51.542;16.450;2024-02-04T04:02:43;7.30;;;1.50;;
36817;SDS011;22761;51.542;16.450;2024-02-04T04:05:11;4.10;;;1.10;;
36817;SDS011;22761;51.542;16.450;2024-02-04T04:07:41;7.80;;;1.10;;
36817;SDS011;22761;51.542;16.450;2024-02-04T04:10:09;4.80;;;1.00;;
36817;SDS011;22761;51.542;16.450;2024-02-04T04:12:38;5.20;;;1.00;;
36817;SDS011;22761;51.542;16.450;2024-02-04T04:15:06;7.30;;;1.40;;
36817;SDS011;22761;51.542;16.450;2024-02-04T04:17:35;6.10;;;1.20;;
36817;SDS011;22761;51.542;16.450;2024-02-04T04:20:04;5.50;;;1.10;;
36817;SDS011;22761;51.542;16.450;2024-02-04T04:22:33;8.50;;;1.10;;
36817;SDS011;22761;51.542;16.450;2024-02-04T04:25:01;6.10;;;1.20;;
36817;SDS011;22761;51.542;16.450;2024-02-04T04:27:30;6.20;;;1.10;;
36817;SDS011;22761;51.542;16.450;2024-02-04T04:29:58;9.10;;;1.30;;
36817;SDS011;22761;51.542;16.450;2024-02-04T04:32:27;5.80;;;1.40;;
36817;SDS011;22761;51.542;16.450;2024-02-04T04:34:55;6.50;;;1.40;;
36817;SDS011;22761;51.542;16.450;2024-02-04T04:37:24;4.90;;;1.20;;
36817;SDS011;22761;51.542;16.450;2024-02-04T04:39:52;5.30;;;1.30;;
36817;SDS011;22761;51.542;16.450;2024-02-04T04:42:20;2.90;;;0.90;;
36817;SDS011;22761;51.542;16.450;2024-02-04T04:44:48;5.70;;;1.40;;
36817;SDS011;22761;51.542;16.450;2024-02-04T04:47:17;7.30;;;1.20;;
36817;SDS011;22761;51.542;16.450;2024-02-04T04:49:45;6.60;;;2.00;;
36817;SDS011;22761;51.542;16.450;2024-02-04T04:52:13;6.70;;;1.30;;
36817;SDS011;22761;51.542;16.450;2024-02-04T04:54:42;4.70;;;1.30;;
36817;SDS011;22761;51.542;16.450;2024-02-04T04:57:10;14.50;;;1.70;;
36817;SDS011;22761;51.542;16.450;2024-02-04T04:59:39;4.50;;;1.00;;
36817;SDS011;22761;51.542;16.450;2024-02-04T05:02:07;7.50;;;1.30;;
36817;SDS011;22761;51.542;16.450;2024-02-04T05:04:35;8.00;;;1.20;;
36817;SDS011;22761;51.542;16.450;2024-02-04T05:07:04;6.80;;;1.30;;
36817;SDS011;22761;51.542;16.450;2024-02-04T05:09:32;4.30;;;1.00;;
36817;SDS011;22761;51.542;16.450;2024-02-04T05:12:01;5.20;;;1.10;;
36817;SDS011;22761;51.542;16.450;2024-02-04T05:14:30;5.70;;;1.20;;
36817;SDS011;22761;51.542;16.450;2024-02-04T05:16:59;4.20;;;1.20;;
36817;SDS011;22761;51.542;16.450;2024-02-04T05:19:27;3.90;;;1.10;;
36817;SDS011;22761;51.542;16.450;2024-02-04T05:21:56;3.70;;;1.00;;
36817;SDS011;22761;51.542;16.450;2024-02-04T05:24:24;4.50;;;1.20;;
36817;SDS011;22761;51.542;16.450;2024-02-04T05:26:52;7.50;;;1.10;;
36817;SDS011;22761;51.542;16.450;2024-02-04T05:29:20;9.60;;;1.40;;
36817;SDS011;22761;51.542;16.450;2024-02-04T05:31:49;6.20;;;1.20;;
36817;SDS011;22761;51.542;16.450;2024-02-04T05:34:17;5.10;;;1.20;;
36817;SDS011;22761;51.542;16.450;2024-02-04T05:36:45;6.40;;;1.50;;
36817;SDS011;22761;51.542;16.450;2024-02-04T05:39:14;6.90;;;1.20;;
36817;SDS011;22761;51.542;16.450;2024-02-04T05:41:43;4.40;;;0.90;;
36817;SDS011;22761;51.542;16.450;2024-02-04T05:44:11;8.40;;;1.20;;
36817;SDS011;22761;51.542;16.450;2024-02-04T05:46:40;6.90;;;1.30;;
36817;SDS011;22761;51.542;16.450;2024-02-04T05:49:09;6.60;;;1.50;;
36817;SDS011;22761;51.542;16.450;2024-02-04T05:51:38;7.20;;;1.30;;
36817;SDS011;22761;51.542;16.450;2024-02-04T05:54:10;9.40;;;1.40;;
36817;SDS011;22761;51.542;16.450;2024-02-04T05:56:38;7.10;;;1.70;;
36817;SDS011;22761;51.542;16.450;2024-02-04T05:59:06;7.20;;;1.60;;
36817;SDS011;22761;51.542;16.450;2024-02-04T06:01:34;9.60;;;1.70;;
36817;SDS011;22761;51.542;16.450;2024-02-04T06:04:02;9.20;;;1.60;;
36817;SDS011;22761;51.542;16.450;2024-02-04T06:06:31;5.30;;;1.40;;
36817;SDS011;22761;51.542;16.450;2024-02-04T06:09:00;7.10;;;1.30;;
36817;SDS011;22761;51.542;16.450;2024-02-04T06:11:28;9.00;;;2.00;;
36817;SDS011;22761;51.542;16.450;2024-02-04T06:13:56;9.10;;;1.90;;
36817;SDS011;22761;51.542;16.450;2024-02-04T06:16:25;7.40;;;1.70;;
36817;SDS011;22761;51.542;16.450;2024-02-04T06:18:54;8.60;;;2.10;;
36817;SDS011;22761;51.542;16.450;2024-02-04T06:21:25;3.80;;;1.40;;
36817;SDS011;22761;51.542;16.450;2024-02-04T06:23:54;6.50;;;1.70;;
36817;SDS011;22761;51.542;16.450;2024-02-04T06:26:22;7.10;;;2.00;;
36817;SDS011;22761;51.542;16.450;2024-02-04T06:28:50;7.40;;;1.50;;
36817;SDS011;22761;51.542;16.450;2024-02-04T06:31:19;6.50;;;1.80;;
36817;SDS011;22761;51.542;16.450;2024-02-04T06:33:47;8.00;;;1.60;;
36817;SDS011;22761;51.542;16.450;2024-02-04T06:36:16;6.10;;;1.60;;
36817;SDS011;22761;51.542;16.450;2024-02-04T06:38:44;7.00;;;1.70;;
36817;SDS011;22761;51.542;16.450;2024-02-04T06:41:12;6.90;;;1.60;;
36817;SDS011;22761;51.542;16.450;2024-02-04T06:43:40;5.00;;;1.30;;
36817;SDS011;22761;51.542;16.450;2024-02-04T06:46:09;6.60;;;1.60;;
36817;SDS011;22761;51.542;16.450;2024-02-04T06:48:37;13.40;;;1.80;;
36817;SDS011;22761;51.542;16.450;2024-02-04T06:51:05;6.00;;;1.30;;
36817;SDS011;22761;51.542;16.450;2024-02-04T06:53:34;3.80;;;1.10;;
36817;SDS011;22761;51.542;16.450;2024-02-04T06:56:02;5.80;;;1.40;;
36817;SDS011;22761;51.542;16.450;2024-02-04T06:58:30;4.80;;;1.10;;
36817;SDS011;22761;51.542;16.450;2024-02-04T07:00:58;5.60;;;1.30;;
36817;SDS011;22761;51.542;16.450;2024-02-04T07:03:27;7.40;;;2.70;;
36817;SDS011;22761;51.542;16.450;2024-02-04T07:06:00;7.00;;;3.10;;
36817;SDS011;22761;51.542;16.450;2024-02-04T07:08:28;10.10;;;3.00;;
36817;SDS011;22761;51.542;16.450;2024-02-04T07:10:57;5.50;;;1.60;;
36817;SDS011;22761;51.542;16.450;2024-02-04T07:13:27;12.50;;;3.50;;
36817;SDS011;22761;51.542;16.450;2024-02-04T07:15:55;7.80;;;2.30;;
36817;SDS011;22761;51.542;16.450;2024-02-04T07:18:23;9.60;;;2.30;;
36817;SDS011;22761;51.542;16.450;2024-02-04T07:20:52;5.30;;;1.20;;
36817;SDS011;22761;51.542;16.450;2024-02-04T07:23:20;7.90;;;1.90;;
36817;SDS011;22761;51.542;16.450;2024-02-04T07:25:49;6.10;;;1.70;;
36817;SDS011;22761;51.542;16.450;2024-02-04T07:28:17;5.00;;;1.80;;
36817;SDS011;22761;51.542;16.450;2024-02-04T07:30:46;7.30;;;2.40;;
36817;SDS011;22761;51.542;16.450;2024-02-04T07:33:14;9.70;;;2.80;;
36817;SDS011;22761;51.542;16.450;2024-02-04T07:35:42;8.70;;;2.60;;
36817;SDS011;22761;51.542;16.450;2024-02-04T07:38:10;4.40;;;1.50;;
36817;SDS011;22761;51.542;16.450;2024-02-04T07:40:39;6.90;;;1.70;;
36817;SDS011;22761;51.542;16.450;2024-02-04T07:43:07;5.70;;;1.70;;
36817;SDS011;22761;51.542;16.450;2024-02-04T07:45:36;7.40;;;1.70;;
36817;SDS011;22761;51.542;16.450;2024-02-04T07:48:04;6.80;;;1.50;;
36817;SDS011;22761;51.542;16.450;2024-02-04T07:50:32;5.20;;;1.00;;
36817;SDS011;22761;51.542;16.450;2024-02-04T07:53:01;6.50;;;1.60;;
36817;SDS011;22761;51.542;16.450;2024-02-04T07:55:29;6.20;;;1.40;;
36817;SDS011;22761;51.542;16.450;2024-02-04T07:57:57;6.70;;;1.30;;
36817;SDS011;22761;51.542;16.450;2024-02-04T08:00:26;4.30;;;1.40;;
36817;SDS011;22761;51.542;16.450;2024-02-04T08:02:54;3.50;;;1.10;;
36817;SDS011;22761;51.542;16.450;2024-02-04T08:05:23;4.60;;;1.00;;
36817;SDS011;22761;51.542;16.450;2024-02-04T08:07:51;4.00;;;1.20;;
36817;SDS011;22761;51.542;16.450;2024-02-04T08:10:20;5.80;;;1.10;;
36817;SDS011;22761;51.542;16.450;2024-02-04T08:12:48;6.40;;;1.30;;
36817;SDS011;22761;51.542;16.450;2024-02-04T08:17:47;6.50;;;1.20;;
36817;SDS011;22761;51.542;16.450;2024-02-04T08:20:15;5.50;;;1.30;;
36817;SDS011;22761;51.542;16.450;2024-02-04T08:22:43;2.70;;;1.00;;
36817;SDS011;22761;51.542;16.450;2024-02-04T08:25:12;3.90;;;1.10;;
36817;SDS011;22761;51.542;16.450;2024-02-04T08:27:40;6.60;;;1.50;;
36817;SDS011;22761;51.542;16.450;2024-02-04T08:30:09;4.20;;;0.80;;
36817;SDS011;22761;51.542;16.450;2024-02-04T08:32:39;3.30;;;0.80;;
36817;SDS011;22761;51.542;16.450;2024-02-04T08:35:07;5.60;;;1.30;;
36817;SDS011;22761;51.542;16.450;2024-02-04T08:37:36;5.10;;;1.00;;
36817;SDS011;22761;51.542;16.450;2024-02-04T08:40:06;4.30;;;1.00;;
36817;SDS011;22761;51.542;16.450;2024-02-04T08:42:35;4.50;;;1.10;;
36817;SDS011;22761;51.542;16.450;2024-02-04T08:45:03;5.10;;;1.10;;
36817;SDS011;22761;51.542;16.450;2024-02-04T08:47:32;5.70;;;1.30;;
36817;SDS011;22761;51.542;16.450;2024-02-04T08:50:00;5.90;;;1.10;;
36817;SDS011;22761;51.542;16.450;2024-02-04T08:52:28;4.20;;;1.00;;
36817;SDS011;22761;51.542;16.450;2024-02-04T08:54:57;9.50;;;1.50;;
36817;SDS011;22761;51.542;16.450;2024-02-04T08:57:26;4.40;;;0.90;;
36817;SDS011;22761;51.542;16.450;2024-02-04T08:59:54;4.10;;;1.00;;
36817;SDS011;22761;51.542;16.450;2024-02-04T09:02:23;7.00;;;1.50;;
36817;SDS011;22761;51.542;16.450;2024-02-04T09:04:51;7.90;;;1.10;;
36817;SDS011;22761;51.542;16.450;2024-02-04T09:07:19;7.40;;;1.50;;
36817;SDS011;22761;51.542;16.450;2024-02-04T09:09:48;6.20;;;1.00;;
36817;SDS011;22761;51.542;16.450;2024-02-04T09:12:16;5.70;;;1.40;;
36817;SDS011;22761;51.542;16.450;2024-02-04T09:14:44;3.90;;;1.00;;
36817;SDS011;22761;51.542;16.450;2024-02-04T09:17:13;7.20;;;1.00;;
36817;SDS011;22761;51.542;16.450;2024-02-04T09:19:41;5.60;;;1.20;;
36817;SDS011;22761;51.542;16.450;2024-02-04T09:22:10;5.20;;;1.10;;
36817;SDS011;22761;51.542;16.450;2024-02-04T09:24:39;4.80;;;1.50;;
36817;SDS011;22761;51.542;16.450;2024-02-04T09:27:07;4.40;;;1.50;;
36817;SDS011;22761;51.542;16.450;2024-02-04T09:29:35;5.30;;;1.10;;
36817;SDS011;22761;51.542;16.450;2024-02-04T09:32:04;6.30;;;1.80;;
36817;SDS011;22761;51.542;16.450;2024-02-04T09:34:33;5.50;;;1.20;;
36817;SDS011;22761;51.542;16.450;2024-02-04T09:37:02;5.50;;;1.10;;
36817;SDS011;22761;51.542;16.450;2024-02-04T09:39:31;5.00;;;1.60;;
36817;SDS011;22761;51.542;16.450;2024-02-04T09:41:59;5.70;;;1.10;;
36817;SDS011;22761;51.542;16.450;2024-02-04T09:44:29;6.50;;;2.20;;
36817;SDS011;22761;51.542;16.450;2024-02-04T09:47:00;4.90;;;1.40;;
36817;SDS011;22761;51.542;16.450;2024-02-04T09:49:29;5.10;;;1.50;;
36817;SDS011;22761;51.542;16.450;2024-02-04T09:51:59;7.00;;;1.40;;
36817;SDS011;22761;51.542;16.450;2024-02-04T09:54:28;6.20;;;1.80;;
36817;SDS011;22761;51.542;16.450;2024-02-04T09:56:57;5.20;;;1.40;;
36817;SDS011;22761;51.542;16.450;2024-02-04T09:59:26;6.20;;;1.40;;
36817;SDS011;22761;51.542;16.450;2024-02-04T10:01:55;6.60;;;1.60;;
36817;SDS011;22761;51.542;16.450;2024-02-04T10:04:24;4.90;;;1.20;;
36817;SDS011;22761;51.542;16.450;2024-02-04T10:06:52;3.70;;;1.10;;
36817;SDS011;22761;51.542;16.450;2024-02-04T10:09:21;7.70;;;2.60;;
36817;SDS011;22761;51.542;16.450;2024-02-04T10:11:49;5.50;;;1.60;;
36817;SDS011;22761;51.542;16.450;2024-02-04T10:14:17;7.20;;;1.60;;
36817;SDS011;22761;51.542;16.450;2024-02-04T10:19:16;4.40;;;1.20;;
36817;SDS011;22761;51.542;16.450;2024-02-04T10:21:44;4.00;;;1.20;;
36817;SDS011;22761;51.542;16.450;2024-02-04T10:24:12;7.60;;;1.80;;
36817;SDS011;22761;51.542;16.450;2024-02-04T10:26:40;8.60;;;1.70;;
36817;SDS011;22761;51.542;16.450;2024-02-04T10:29:11;4.20;;;1.70;;
36817;SDS011;22761;51.542;16.450;2024-02-04T10:31:39;4.80;;;1.80;;
36817;SDS011;22761;51.542;16.450;2024-02-04T10:34:07;6.60;;;1.80;;
36817;SDS011;22761;51.542;16.450;2024-02-04T10:36:36;6.80;;;1.90;;
36817;SDS011;22761;51.542;16.450;2024-02-04T10:39:05;5.00;;;1.70;;
36817;SDS011;22761;51.542;16.450;2024-02-04T10:41:34;4.90;;;1.60;;
36817;SDS011;22761;51.542;16.450;2024-02-04T10:44:04;4.60;;;1.50;;
36817;SDS011;22761;51.542;16.450;2024-02-04T10:46:33;5.00;;;1.80;;
36817;SDS011;22761;51.542;16.450;2024-02-04T10:49:02;6.50;;;1.70;;
36817;SDS011;22761;51.542;16.450;2024-02-04T10:51:31;5.40;;;1.60;;
36817;SDS011;22761;51.542;16.450;2024-02-04T10:54:01;5.80;;;1.40;;
36817;SDS011;22761;51.542;16.450;2024-02-04T10:56:54;4.00;;;1.90;;
36817;SDS011;22761;51.542;16.450;2024-02-04T10:59:24;4.20;;;2.00;;
36817;SDS011;22761;51.542;16.450;2024-02-04T11:01:53;5.30;;;2.20;;
36817;SDS011;22761;51.542;16.450;2024-02-04T11:04:21;4.00;;;1.90;;
36817;SDS011;22761;51.542;16.450;2024-02-04T11:06:50;5.90;;;2.50;;
36817;SDS011;22761;51.542;16.450;2024-02-04T11:09:18;5.50;;;2.60;;
36817;SDS011;22761;51.542;16.450;2024-02-04T11:11:47;9.70;;;3.10;;
36817;SDS011;22761;51.542;16.450;2024-02-04T11:14:16;8.80;;;2.80;;
36817;SDS011;22761;51.542;16.450;2024-02-04T11:22:31;5.10;;;2.40;;
36817;SDS011;22761;51.542;16.450;2024-02-04T11:27:59;5.80;;;2.70;;
36817;SDS011;22761;51.542;16.450;2024-02-04T11:30:32;21.70;;;10.70;;
36817;SDS011;22761;51.542;16.450;2024-02-04T11:33:05;8.70;;;3.50;;
36817;SDS011;22761;51.542;16.450;2024-02-04T11:35:34;5.60;;;1.90;;
36817;SDS011;22761;51.542;16.450;2024-02-04T11:38:03;3.60;;;2.40;;
36817;SDS011;22761;51.542;16.450;2024-02-04T11:40:36;4.90;;;2.50;;
36817;SDS011;22761;51.542;16.450;2024-02-04T11:43:12;3.20;;;2.10;;
36817;SDS011;22761;51.542;16.450;2024-02-04T11:45:43;4.80;;;2.50;;
36817;SDS011;22761;51.542;16.450;2024-02-04T11:48:12;5.70;;;2.40;;
36817;SDS011;22761;51.542;16.450;2024-02-04T11:50:40;5.10;;;2.60;;
36817;SDS011;22761;51.542;16.450;2024-02-04T11:53:09;3.40;;;2.10;;
36817;SDS011;22761;51.542;16.450;2024-02-04T11:55:39;4.60;;;2.20;;
36817;SDS011;22761;51.542;16.450;2024-02-04T11:58:12;5.00;;;2.30;;
36817;SDS011;22761;51.542;16.450;2024-02-04T12:00:44;3.80;;;2.20;;
36817;SDS011;22761;51.542;16.450;2024-02-04T12:03:13;5.50;;;2.40;;
36817;SDS011;22761;51.542;16.450;2024-02-04T12:05:42;4.10;;;2.10;;
36817;SDS011;22761;51.542;16.450;2024-02-04T12:08:11;4.20;;;2.00;;
36817;SDS011;22761;51.542;16.450;2024-02-04T12:10:40;5.10;;;2.00;;
36817;SDS011;22761;51.542;16.450;2024-02-04T12:13:08;3.50;;;1.80;;
36817;SDS011;22761;51.542;16.450;2024-02-04T12:15:37;6.10;;;2.20;;
36817;SDS011;22761;51.542;16.450;2024-02-04T12:18:10;4.10;;;2.10;;
36817;SDS011;22761;51.542;16.450;2024-02-04T12:20:40;3.00;;;1.90;;
36817;SDS011;22761;51.542;16.450;2024-02-04T12:23:08;2.70;;;1.70;;
36817;SDS011;22761;51.542;16.450;2024-02-04T12:25:36;4.20;;;2.10;;
36817;SDS011;22761;51.542;16.450;2024-02-04T12:28:10;3.80;;;1.90;;
36817;SDS011;22761;51.542;16.450;2024-02-04T12:30:38;5.20;;;2.20;;
36817;SDS011;22761;51.542;16.450;2024-02-04T12:33:06;3.60;;;2.20;;
36817;SDS011;22761;51.542;16.450;2024-02-04T12:35:37;4.80;;;2.10;;
36817;SDS011;22761;51.542;16.450;2024-02-04T12:38:06;4.60;;;2.00;;
36817;SDS011;22761;51.542;16.450;2024-02-04T12:40:35;4.70;;;2.00;;
36817;SDS011;22761;51.542;16.450;2024-02-04T12:43:03;3.50;;;1.90;;
36817;SDS011;22761;51.542;16.450;2024-02-04T12:45:34;3.80;;;2.20;;
36817;SDS011;22761;51.542;16.450;2024-02-04T12:48:02;3.40;;;1.90;;
36817;SDS011;22761;51.542;16.450;2024-02-04T12:50:31;5.60;;;2.00;;
36817;SDS011;22761;51.542;16.450;2024-02-04T12:53:04;6.10;;;1.80;;
36817;SDS011;22761;51.542;16.450;2024-02-04T12:55:34;3.80;;;1.90;;
36817;SDS011;22761;51.542;16.450;2024-02-04T12:58:12;2.20;;;1.80;;
36817;SDS011;22761;51.542;16.450;2024-02-04T13:00:42;3.90;;;1.90;;
36817;SDS011;22761;51.542;16.450;2024-02-04T13:03:14;4.20;;;2.10;;
36817;SDS011;22761;51.542;16.450;2024-02-04T13:05:43;4.00;;;2.10;;
36817;SDS011;22761;51.542;16.450;2024-02-04T13:08:13;2.00;;;1.50;;
36817;SDS011;22761;51.542;16.450;2024-02-04T13:10:47;4.60;;;1.80;;
36817;SDS011;22761;51.542;16.450;2024-02-04T13:13:22;1.60;;;1.30;;
36817;SDS011;22761;51.542;16.450;2024-02-04T13:15:56;3.60;;;1.60;;
36817;SDS011;22761;51.542;16.450;2024-02-04T13:18:25;3.30;;;1.60;;
36817;SDS011;22761;51.542;16.450;2024-02-04T13:20:53;2.40;;;1.50;;
36817;SDS011;22761;51.542;16.450;2024-02-04T13:23:21;3.20;;;1.60;;
36817;SDS011;22761;51.542;16.450;2024-02-04T13:25:49;3.50;;;2.10;;
36817;SDS011;22761;51.542;16.450;2024-02-04T13:28:18;3.70;;;1.50;;
36817;SDS011;22761;51.542;16.450;2024-02-04T13:30:46;4.80;;;1.60;;
36817;SDS011;22761;51.542;16.450;2024-02-04T13:33:14;4.20;;;2.10;;
36817;SDS011;22761;51.542;16.450;2024-02-04T13:35:43;3.00;;;1.60;;
36817;SDS011;22761;51.542;16.450;2024-02-04T13:38:11;5.30;;;2.60;;
36817;SDS011;22761;51.542;16.450;2024-02-04T13:40:39;8.80;;;4.10;;
36817;SDS011;22761;51.542;16.450;2024-02-04T13:43:08;15.30;;;6.80;;
36817;SDS011;22761;51.542;16.450;2024-02-04T13:45:37;13.40;;;5.60;;
36817;SDS011;22761;51.542;16.450;2024-02-04T13:48:05;17.00;;;9.70;;
36817;SDS011;22761;51.542;16.450;2024-02-04T13:50:34;12.60;;;6.30;;
36817;SDS011;22761;51.542;16.450;2024-02-04T13:55:32;9.80;;;5.60;;
36817;SDS011;22761;51.542;16.450;2024-02-04T13:58:00;11.70;;;7.00;;
36817;SDS011;22761;51.542;16.450;2024-02-04T14:00:29;8.20;;;3.80;;
36817;SDS011;22761;51.542;16.450;2024-02-04T14:02:57;5.80;;;3.20;;
36817;SDS011;22761;51.542;16.450;2024-02-04T14:05:26;10.80;;;6.30;;
36817;SDS011;22761;51.542;16.450;2024-02-04T14:07:54;8.10;;;3.80;;
36817;SDS011;22761;51.542;16.450;2024-02-04T14:10:26;6.60;;;3.70;;
36817;SDS011;22761;51.542;16.450;2024-02-04T14:12:55;9.70;;;4.90;;
36817;SDS011;22761;51.542;16.450;2024-02-04T14:15:23;21.20;;;10.50;;
36817;SDS011;22761;51.542;16.450;2024-02-04T14:17:51;6.90;;;3.50;;
36817;SDS011;22761;51.542;16.450;2024-02-04T14:20:20;5.90;;;3.50;;
36817;SDS011;22761;51.542;16.450;2024-02-04T14:22:50;6.60;;;2.80;;
36817;SDS011;22761;51.542;16.450;2024-02-04T14:25:20;9.00;;;4.80;;
36817;SDS011;22761;51.542;16.450;2024-02-04T14:27:50;5.90;;;3.80;;
36817;SDS011;22761;51.542;16.450;2024-02-04T14:30:18;6.10;;;2.70;;
36817;SDS011;22761;51.542;16.450;2024-02-04T14:32:46;3.40;;;1.90;;
36817;SDS011;22761;51.542;16.450;2024-02-04T14:35:15;6.80;;;2.60;;
36817;SDS011;22761;51.542;16.450;2024-02-04T14:37:43;4.50;;;1.80;;
36817;SDS011;22761;51.542;16.450;2024-02-04T14:40:12;3.90;;;1.70;;
36817;SDS011;22761;51.542;16.450;2024-02-04T14:42:40;5.70;;;2.00;;
36817;SDS011;22761;51.542;16.450;2024-02-04T14:45:10;6.80;;;3.50;;
36817;SDS011;22761;51.542;16.450;2024-02-04T14:47:39;4.30;;;2.20;;
36817;SDS011;22761;51.542;16.450;2024-02-04T14:50:07;7.00;;;2.20;;
36817;SDS011;22761;51.542;16.450;2024-02-04T14:52:36;5.10;;;2.50;;
36817;SDS011;22761;51.542;16.450;2024-02-04T14:55:04;5.40;;;2.00;;
36817;SDS011;22761;51.542;16.450;2024-02-04T14:57:32;6.00;;;2.00;;
36817;SDS011;22761;51.542;16.450;2024-02-04T15:00:01;3.80;;;1.80;;
36817;SDS011;22761;51.542;16.450;2024-02-04T15:02:29;4.60;;;1.70;;